sensor_id;sensor_type;location;lat;lon;timestamp;P1;durP1;ratioP1;P2;durP2;ratioP2
64885;SDS011;51514;52.206;5.114;2024-02-15T00:00:03;27.85;;;11.02;;
64885;SDS011;51514;52.206;5.114;2024-02-15T00:02:29;33.67;;;13.02;;
64885;SDS011;51514;52.206;5.114;2024-02-15T00:04:54;28.83;;;12.13;;
64885;SDS011;51514;52.206;5.114;2024-02-15T00:07:20;27.52;;;13.27;;
64885;SDS011;51514;52.206;5.114;2024-02-15T00:09:47;30.33;;;12.80;;
64885;SDS011;51514;52.206;5.114;2024-02-15T00:12:13;31.20;;;13.10;;
64885;SDS011;51514;52.206;5.114;2024-02-15T00:14:38;30.70;;;12.32;;
64885;SDS011;51514;52.206;5.114;2024-02-15T00:17:04;29.90;;;12.57;;
64885;SDS011;51514;52.206;5.114;2024-02-15T00:19:30;30.98;;;11.85;;
64885;SDS011;51514;52.206;5.114;2024-02-15T00:21:55;23.33;;;10.85;;
64885;SDS011;51514;52.206;5.114;2024-02-15T00:24:21;20.30;;;10.90;;
64885;SDS011;51514;52.206;5.114;2024-02-15T00:26:46;26.83;;;10.98;;
64885;SDS011;51514;52.206;5.114;2024-02-15T00:29:13;23.45;;;10.05;;
64885;SDS011;51514;52.206;5.114;2024-02-15T00:31:39;24.42;;;10.27;;
64885;SDS011;51514;52.206;5.114;2024-02-15T00:34:05;19.63;;;9.65;;
64885;SDS011;51514;52.206;5.114;2024-02-15T00:36:31;16.13;;;9.15;;
64885;SDS011;51514;52.206;5.114;2024-02-15T00:38:57;26.75;;;10.02;;
64885;SDS011;51514;52.206;5.114;2024-02-15T00:41:22;22.85;;;9.25;;
64885;SDS011;51514;52.206;5.114;2024-02-15T00:43:48;28.92;;;10.07;;
64885;SDS011;51514;52.206;5.114;2024-02-15T00:46:15;21.10;;;9.07;;
64885;SDS011;51514;52.206;5.114;2024-02-15T00:48:40;19.08;;;9.40;;
64885;SDS011;51514;52.206;5.114;2024-02-15T00:51:06;20.88;;;8.45;;
64885;SDS011;51514;52.206;5.114;2024-02-15T00:53:32;21.25;;;8.52;;
64885;SDS011;51514;52.206;5.114;2024-02-15T00:55:57;16.77;;;8.48;;
64885;SDS011;51514;52.206;5.114;2024-02-15T00:58:23;21.58;;;8.25;;
64885;SDS011;51514;52.206;5.114;2024-02-15T01:00:49;21.15;;;8.05;;
64885;SDS011;51514;52.206;5.114;2024-02-15T01:03:15;19.23;;;8.80;;
64885;SDS011;51514;52.206;5.114;2024-02-15T01:05:41;22.30;;;8.90;;
64885;SDS011;51514;52.206;5.114;2024-02-15T01:08:06;23.67;;;8.85;;
64885;SDS011;51514;52.206;5.114;2024-02-15T01:10:33;19.02;;;8.70;;
64885;SDS011;51514;52.206;5.114;2024-02-15T01:12:59;20.63;;;8.63;;
64885;SDS011;51514;52.206;5.114;2024-02-15T01:15:25;18.52;;;8.98;;
64885;SDS011;51514;52.206;5.114;2024-02-15T01:17:50;18.88;;;8.43;;
64885;SDS011;51514;52.206;5.114;2024-02-15T01:20:15;25.05;;;9.95;;
64885;SDS011;51514;52.206;5.114;2024-02-15T01:22:41;23.95;;;8.05;;
64885;SDS011;51514;52.206;5.114;2024-02-15T01:25:06;19.80;;;7.80;;
64885;SDS011;51514;52.206;5.114;2024-02-15T01:27:32;20.38;;;9.60;;
64885;SDS011;51514;52.206;5.114;2024-02-15T01:29:59;19.98;;;9.70;;
64885;SDS011;51514;52.206;5.114;2024-02-15T01:32:24;20.83;;;9.43;;
64885;SDS011;51514;52.206;5.114;2024-02-15T01:34:52;22.95;;;9.90;;
64885;SDS011;51514;52.206;5.114;2024-02-15T01:37:20;17.75;;;9.23;;
64885;SDS011;51514;52.206;5.114;2024-02-15T01:39:46;23.40;;;10.45;;
64885;SDS011;51514;52.206;5.114;2024-02-15T01:42:12;23.50;;;10.77;;
64885;SDS011;51514;52.206;5.114;2024-02-15T01:44:39;21.17;;;11.05;;
64885;SDS011;51514;52.206;5.114;2024-02-15T01:47:05;27.10;;;12.57;;
64885;SDS011;51514;52.206;5.114;2024-02-15T01:49:31;23.50;;;11.68;;
64885;SDS011;51514;52.206;5.114;2024-02-15T01:51:57;21.40;;;11.18;;
64885;SDS011;51514;52.206;5.114;2024-02-15T01:54:23;29.08;;;11.95;;
64885;SDS011;51514;52.206;5.114;2024-02-15T01:56:50;23.92;;;11.88;;
64885;SDS011;51514;52.206;5.114;2024-02-15T01:59:15;24.83;;;11.73;;
64885;SDS011;51514;52.206;5.114;2024-02-15T02:01:41;22.33;;;12.27;;
64885;SDS011;51514;52.206;5.114;2024-02-15T02:04:07;21.88;;;12.98;;
64885;SDS011;51514;52.206;5.114;2024-02-15T02:06:34;24.67;;;13.27;;
64885;SDS011;51514;52.206;5.114;2024-02-15T02:09:02;28.67;;;13.35;;
64885;SDS011;51514;52.206;5.114;2024-02-15T02:11:28;24.95;;;13.75;;
64885;SDS011;51514;52.206;5.114;2024-02-15T02:13:54;21.02;;;13.05;;
64885;SDS011;51514;52.206;5.114;2024-02-15T02:16:29;27.02;;;14.27;;
64885;SDS011;51514;52.206;5.114;2024-02-15T02:19:00;21.83;;;13.50;;
64885;SDS011;51514;52.206;5.114;2024-02-15T02:21:26;25.10;;;14.00;;
64885;SDS011;51514;52.206;5.114;2024-02-15T02:23:55;27.20;;;14.32;;
64885;SDS011;51514;52.206;5.114;2024-02-15T02:26:22;26.98;;;14.52;;
64885;SDS011;51514;52.206;5.114;2024-02-15T02:28:48;26.85;;;14.50;;
64885;SDS011;51514;52.206;5.114;2024-02-15T02:31:14;28.52;;;14.93;;
64885;SDS011;51514;52.206;5.114;2024-02-15T02:33:41;25.90;;;14.57;;
64885;SDS011;51514;52.206;5.114;2024-02-15T02:36:07;25.33;;;15.02;;
64885;SDS011;51514;52.206;5.114;2024-02-15T02:38:35;28.42;;;15.27;;
64885;SDS011;51514;52.206;5.114;2024-02-15T02:41:03;28.42;;;15.23;;
64885;SDS011;51514;52.206;5.114;2024-02-15T02:43:29;25.98;;;14.48;;
64885;SDS011;51514;52.206;5.114;2024-02-15T02:45:54;30.23;;;14.77;;
64885;SDS011;51514;52.206;5.114;2024-02-15T02:48:20;27.70;;;15.07;;
64885;SDS011;51514;52.206;5.114;2024-02-15T02:50:46;27.65;;;14.68;;
64885;SDS011;51514;52.206;5.114;2024-02-15T02:53:12;21.83;;;14.68;;
64885;SDS011;51514;52.206;5.114;2024-02-15T02:55:38;27.35;;;14.80;;
64885;SDS011;51514;52.206;5.114;2024-02-15T02:58:05;29.00;;;15.20;;
64885;SDS011;51514;52.206;5.114;2024-02-15T03:00:32;28.75;;;14.68;;
64885;SDS011;51514;52.206;5.114;2024-02-15T03:02:58;27.83;;;13.52;;
64885;SDS011;51514;52.206;5.114;2024-02-15T03:05:24;24.42;;;13.38;;
64885;SDS011;51514;52.206;5.114;2024-02-15T03:07:50;20.35;;;13.30;;
64885;SDS011;51514;52.206;5.114;2024-02-15T03:10:16;30.73;;;14.70;;
64885;SDS011;51514;52.206;5.114;2024-02-15T03:12:43;27.73;;;14.80;;
64885;SDS011;51514;52.206;5.114;2024-02-15T03:15:12;23.00;;;13.77;;
64885;SDS011;51514;52.206;5.114;2024-02-15T03:17:38;29.95;;;13.75;;
64885;SDS011;51514;52.206;5.114;2024-02-15T03:22:54;30.02;;;15.52;;
64885;SDS011;51514;52.206;5.114;2024-02-15T03:25:21;21.13;;;12.85;;
64885;SDS011;51514;52.206;5.114;2024-02-15T03:27:50;23.13;;;14.65;;
64885;SDS011;51514;52.206;5.114;2024-02-15T03:30:19;23.63;;;13.25;;
64885;SDS011;51514;52.206;5.114;2024-02-15T03:32:46;25.90;;;13.35;;
64885;SDS011;51514;52.206;5.114;2024-02-15T03:35:19;26.33;;;13.13;;
64885;SDS011;51514;52.206;5.114;2024-02-15T03:37:47;24.95;;;13.18;;
64885;SDS011;51514;52.206;5.114;2024-02-15T03:40:16;24.83;;;13.30;;
64885;SDS011;51514;52.206;5.114;2024-02-15T03:42:41;22.90;;;11.98;;
64885;SDS011;51514;52.206;5.114;2024-02-15T03:45:07;33.20;;;12.93;;
64885;SDS011;51514;52.206;5.114;2024-02-15T03:47:33;19.15;;;11.85;;
64885;SDS011;51514;52.206;5.114;2024-02-15T03:49:59;18.83;;;11.30;;
64885;SDS011;51514;52.206;5.114;2024-02-15T03:52:25;24.55;;;11.45;;
64885;SDS011;51514;52.206;5.114;2024-02-15T03:54:50;20.58;;;11.20;;
64885;SDS011;51514;52.206;5.114;2024-02-15T03:57:17;23.15;;;10.77;;
64885;SDS011;51514;52.206;5.114;2024-02-15T03:59:45;24.08;;;11.10;;
64885;SDS011;51514;52.206;5.114;2024-02-15T04:02:15;24.77;;;11.27;;
64885;SDS011;51514;52.206;5.114;2024-02-15T04:04:41;25.55;;;11.20;;
64885;SDS011;51514;52.206;5.114;2024-02-15T04:07:08;21.92;;;11.32;;
64885;SDS011;51514;52.206;5.114;2024-02-15T04:09:35;24.33;;;11.40;;
64885;SDS011;51514;52.206;5.114;2024-02-15T04:12:01;22.80;;;11.05;;
64885;SDS011;51514;52.206;5.114;2024-02-15T04:14:26;23.08;;;10.73;;
64885;SDS011;51514;52.206;5.114;2024-02-15T04:16:52;22.75;;;11.32;;
64885;SDS011;51514;52.206;5.114;2024-02-15T04:19:17;22.90;;;11.32;;
64885;SDS011;51514;52.206;5.114;2024-02-15T04:21:46;20.98;;;10.13;;
64885;SDS011;51514;52.206;5.114;2024-02-15T04:24:12;24.92;;;10.75;;
64885;SDS011;51514;52.206;5.114;2024-02-15T04:26:38;17.48;;;10.15;;
64885;SDS011;51514;52.206;5.114;2024-02-15T04:29:03;27.58;;;11.32;;
64885;SDS011;51514;52.206;5.114;2024-02-15T04:31:29;29.10;;;11.45;;
64885;SDS011;51514;52.206;5.114;2024-02-15T04:33:54;27.00;;;11.13;;
64885;SDS011;51514;52.206;5.114;2024-02-15T04:36:23;25.30;;;9.70;;
64885;SDS011;51514;52.206;5.114;2024-02-15T04:38:50;25.30;;;10.48;;
64885;SDS011;51514;52.206;5.114;2024-02-15T04:41:16;21.52;;;10.60;;
64885;SDS011;51514;52.206;5.114;2024-02-15T04:43:46;26.88;;;11.50;;
64885;SDS011;51514;52.206;5.114;2024-02-15T04:46:12;24.83;;;10.75;;
64885;SDS011;51514;52.206;5.114;2024-02-15T04:48:39;20.42;;;10.88;;
64885;SDS011;51514;52.206;5.114;2024-02-15T04:51:06;24.90;;;10.57;;
64885;SDS011;51514;52.206;5.114;2024-02-15T04:53:32;25.38;;;10.95;;
64885;SDS011;51514;52.206;5.114;2024-02-15T04:55:57;25.83;;;11.88;;
64885;SDS011;51514;52.206;5.114;2024-02-15T04:58:25;27.83;;;12.38;;
64885;SDS011;51514;52.206;5.114;2024-02-15T05:00:53;29.33;;;13.38;;
64885;SDS011;51514;52.206;5.114;2024-02-15T05:03:22;26.30;;;13.65;;
64885;SDS011;51514;52.206;5.114;2024-02-15T05:05:48;24.17;;;13.63;;
64885;SDS011;51514;52.206;5.114;2024-02-15T05:08:13;29.42;;;13.48;;
64885;SDS011;51514;52.206;5.114;2024-02-15T05:10:39;28.02;;;13.75;;
64885;SDS011;51514;52.206;5.114;2024-02-15T05:13:04;25.50;;;14.15;;
64885;SDS011;51514;52.206;5.114;2024-02-15T05:15:29;30.63;;;14.38;;
64885;SDS011;51514;52.206;5.114;2024-02-15T05:17:55;30.92;;;16.17;;
64885;SDS011;51514;52.206;5.114;2024-02-15T05:20:21;28.48;;;14.60;;
64885;SDS011;51514;52.206;5.114;2024-02-15T05:22:46;27.10;;;15.68;;
64885;SDS011;51514;52.206;5.114;2024-02-15T05:25:12;27.58;;;15.10;;
64885;SDS011;51514;52.206;5.114;2024-02-15T05:27:37;25.83;;;14.48;;
64885;SDS011;51514;52.206;5.114;2024-02-15T05:30:03;27.88;;;14.88;;
64885;SDS011;51514;52.206;5.114;2024-02-15T05:32:33;27.42;;;14.88;;
64885;SDS011;51514;52.206;5.114;2024-02-15T05:35:06;23.50;;;13.07;;
64885;SDS011;51514;52.206;5.114;2024-02-15T05:37:36;23.75;;;14.90;;
64885;SDS011;51514;52.206;5.114;2024-02-15T05:40:01;26.15;;;14.40;;
64885;SDS011;51514;52.206;5.114;2024-02-15T05:42:27;28.52;;;15.82;;
64885;SDS011;51514;52.206;5.114;2024-02-15T05:44:53;27.98;;;16.38;;
64885;SDS011;51514;52.206;5.114;2024-02-15T05:47:18;35.38;;;17.45;;
64885;SDS011;51514;52.206;5.114;2024-02-15T05:49:44;33.00;;;17.30;;
64885;SDS011;51514;52.206;5.114;2024-02-15T05:52:12;24.55;;;16.33;;
64885;SDS011;51514;52.206;5.114;2024-02-15T05:54:37;33.47;;;17.77;;
64885;SDS011;51514;52.206;5.114;2024-02-15T05:57:04;33.13;;;17.85;;
64885;SDS011;51514;52.206;5.114;2024-02-15T05:59:30;29.95;;;17.73;;
64885;SDS011;51514;52.206;5.114;2024-02-15T06:01:55;29.02;;;16.60;;
64885;SDS011;51514;52.206;5.114;2024-02-15T06:04:21;33.20;;;18.42;;
64885;SDS011;51514;52.206;5.114;2024-02-15T06:06:48;40.88;;;19.38;;
64885;SDS011;51514;52.206;5.114;2024-02-15T06:09:15;37.60;;;18.30;;
64885;SDS011;51514;52.206;5.114;2024-02-15T06:11:41;35.53;;;18.45;;
64885;SDS011;51514;52.206;5.114;2024-02-15T06:14:06;38.33;;;18.90;;
64885;SDS011;51514;52.206;5.114;2024-02-15T06:16:31;35.55;;;20.13;;
64885;SDS011;51514;52.206;5.114;2024-02-15T06:18:57;31.63;;;18.85;;
64885;SDS011;51514;52.206;5.114;2024-02-15T06:21:22;31.48;;;19.60;;
64885;SDS011;51514;52.206;5.114;2024-02-15T06:23:48;31.48;;;19.02;;
64885;SDS011;51514;52.206;5.114;2024-02-15T06:26:15;34.25;;;19.52;;
64885;SDS011;51514;52.206;5.114;2024-02-15T06:28:41;27.33;;;19.05;;
64885;SDS011;51514;52.206;5.114;2024-02-15T06:31:26;33.80;;;18.85;;
64885;SDS011;51514;52.206;5.114;2024-02-15T06:34:10;36.95;;;20.70;;
64885;SDS011;51514;52.206;5.114;2024-02-15T06:36:54;33.10;;;19.33;;
64885;SDS011;51514;52.206;5.114;2024-02-15T06:39:39;33.65;;;18.75;;
64885;SDS011;51514;52.206;5.114;2024-02-15T06:42:12;26.00;;;16.77;;
64885;SDS011;51514;52.206;5.114;2024-02-15T06:44:46;29.38;;;18.40;;
64885;SDS011;51514;52.206;5.114;2024-02-15T06:49:39;32.83;;;19.75;;
64885;SDS011;51514;52.206;5.114;2024-02-15T06:52:05;35.55;;;18.83;;
64885;SDS011;51514;52.206;5.114;2024-02-15T06:54:32;33.97;;;18.38;;
64885;SDS011;51514;52.206;5.114;2024-02-15T06:56:59;37.38;;;19.98;;
64885;SDS011;51514;52.206;5.114;2024-02-15T06:59:24;29.48;;;19.20;;
64885;SDS011;51514;52.206;5.114;2024-02-15T07:01:50;32.63;;;18.23;;
64885;SDS011;51514;52.206;5.114;2024-02-15T07:04:17;29.60;;;16.45;;
64885;SDS011;51514;52.206;5.114;2024-02-15T07:06:44;28.88;;;16.50;;
64885;SDS011;51514;52.206;5.114;2024-02-15T07:09:12;30.98;;;18.55;;
64885;SDS011;51514;52.206;5.114;2024-02-15T07:11:40;27.23;;;17.77;;
64885;SDS011;51514;52.206;5.114;2024-02-15T07:14:05;31.83;;;18.20;;
64885;SDS011;51514;52.206;5.114;2024-02-15T07:16:32;38.60;;;18.50;;
64885;SDS011;51514;52.206;5.114;2024-02-15T07:18:58;30.92;;;17.73;;
64885;SDS011;51514;52.206;5.114;2024-02-15T07:21:24;36.85;;;17.95;;
64885;SDS011;51514;52.206;5.114;2024-02-15T07:23:52;22.85;;;16.33;;
64885;SDS011;51514;52.206;5.114;2024-02-15T07:26:20;26.40;;;15.95;;
64885;SDS011;51514;52.206;5.114;2024-02-15T07:28:49;21.63;;;13.87;;
64885;SDS011;51514;52.206;5.114;2024-02-15T07:31:18;21.75;;;13.68;;
64885;SDS011;51514;52.206;5.114;2024-02-15T07:36:13;24.23;;;13.88;;
64885;SDS011;51514;52.206;5.114;2024-02-15T07:38:43;18.42;;;11.93;;
64885;SDS011;51514;52.206;5.114;2024-02-15T07:41:09;23.45;;;13.13;;
64885;SDS011;51514;52.206;5.114;2024-02-15T07:43:34;19.45;;;11.48;;
64885;SDS011;51514;52.206;5.114;2024-02-15T07:45:59;15.93;;;10.85;;
64885;SDS011;51514;52.206;5.114;2024-02-15T07:48:25;15.48;;;10.93;;
64885;SDS011;51514;52.206;5.114;2024-02-15T07:50:51;15.13;;;9.43;;
64885;SDS011;51514;52.206;5.114;2024-02-15T07:53:18;14.60;;;10.30;;
64885;SDS011;51514;52.206;5.114;2024-02-15T07:55:44;14.60;;;9.88;;
64885;SDS011;51514;52.206;5.114;2024-02-15T07:58:10;12.45;;;8.43;;
64885;SDS011;51514;52.206;5.114;2024-02-15T08:00:35;16.38;;;8.82;;
64885;SDS011;51514;52.206;5.114;2024-02-15T08:03:02;13.57;;;9.63;;
64885;SDS011;51514;52.206;5.114;2024-02-15T08:05:28;13.18;;;8.50;;
64885;SDS011;51514;52.206;5.114;2024-02-15T08:07:53;12.00;;;9.02;;
64885;SDS011;51514;52.206;5.114;2024-02-15T08:10:22;18.33;;;9.45;;
64885;SDS011;51514;52.206;5.114;2024-02-15T08:12:47;12.38;;;9.20;;
64885;SDS011;51514;52.206;5.114;2024-02-15T08:15:17;16.25;;;8.98;;
64885;SDS011;51514;52.206;5.114;2024-02-15T08:17:43;13.55;;;9.45;;
64885;SDS011;51514;52.206;5.114;2024-02-15T08:20:12;16.50;;;9.85;;
64885;SDS011;51514;52.206;5.114;2024-02-15T08:22:39;16.25;;;10.20;;
64885;SDS011;51514;52.206;5.114;2024-02-15T08:25:08;14.65;;;9.60;;
64885;SDS011;51514;52.206;5.114;2024-02-15T08:27:41;19.52;;;8.63;;
64885;SDS011;51514;52.206;5.114;2024-02-15T08:30:09;11.48;;;8.10;;
64885;SDS011;51514;52.206;5.114;2024-02-15T08:32:36;13.68;;;9.05;;
64885;SDS011;51514;52.206;5.114;2024-02-15T08:35:04;12.88;;;8.25;;
64885;SDS011;51514;52.206;5.114;2024-02-15T08:37:33;12.35;;;7.07;;
64885;SDS011;51514;52.206;5.114;2024-02-15T08:40:00;11.25;;;7.22;;
64885;SDS011;51514;52.206;5.114;2024-02-15T08:42:25;14.32;;;8.25;;
64885;SDS011;51514;52.206;5.114;2024-02-15T08:44:51;12.07;;;8.00;;
64885;SDS011;51514;52.206;5.114;2024-02-15T08:47:17;14.05;;;8.23;;
64885;SDS011;51514;52.206;5.114;2024-02-15T08:49:42;10.63;;;6.93;;
64885;SDS011;51514;52.206;5.114;2024-02-15T08:52:08;10.40;;;7.20;;
64885;SDS011;51514;52.206;5.114;2024-02-15T08:54:33;13.70;;;7.47;;
64885;SDS011;51514;52.206;5.114;2024-02-15T08:56:59;10.32;;;7.38;;
64885;SDS011;51514;52.206;5.114;2024-02-15T08:59:26;12.93;;;8.25;;
64885;SDS011;51514;52.206;5.114;2024-02-15T09:01:53;14.02;;;7.78;;
64885;SDS011;51514;52.206;5.114;2024-02-15T09:04:19;13.30;;;8.55;;
64885;SDS011;51514;52.206;5.114;2024-02-15T09:06:46;13.30;;;8.52;;
64885;SDS011;51514;52.206;5.114;2024-02-15T09:09:11;16.13;;;9.02;;
64885;SDS011;51514;52.206;5.114;2024-02-15T09:11:37;13.30;;;8.27;;
64885;SDS011;51514;52.206;5.114;2024-02-15T09:14:02;15.48;;;8.10;;
64885;SDS011;51514;52.206;5.114;2024-02-15T09:16:27;15.90;;;8.27;;
64885;SDS011;51514;52.206;5.114;2024-02-15T09:18:53;18.58;;;9.57;;
64885;SDS011;51514;52.206;5.114;2024-02-15T09:21:18;16.05;;;8.88;;
64885;SDS011;51514;52.206;5.114;2024-02-15T09:23:46;18.08;;;8.52;;
64885;SDS011;51514;52.206;5.114;2024-02-15T09:26:14;13.32;;;7.55;;
64885;SDS011;51514;52.206;5.114;2024-02-15T09:28:40;14.77;;;8.63;;
64885;SDS011;51514;52.206;5.114;2024-02-15T09:31:06;19.92;;;9.82;;
64885;SDS011;51514;52.206;5.114;2024-02-15T09:33:31;15.52;;;8.52;;
64885;SDS011;51514;52.206;5.114;2024-02-15T09:35:56;15.32;;;8.50;;
64885;SDS011;51514;52.206;5.114;2024-02-15T09:38:22;17.05;;;9.23;;
64885;SDS011;51514;52.206;5.114;2024-02-15T09:40:50;17.73;;;8.52;;
64885;SDS011;51514;52.206;5.114;2024-02-15T09:43:16;13.73;;;8.32;;
64885;SDS011;51514;52.206;5.114;2024-02-15T09:45:41;13.55;;;7.45;;
64885;SDS011;51514;52.206;5.114;2024-02-15T09:48:07;16.25;;;8.63;;
64885;SDS011;51514;52.206;5.114;2024-02-15T09:50:35;14.50;;;7.25;;
64885;SDS011;51514;52.206;5.114;2024-02-15T09:53:03;16.30;;;7.23;;
64885;SDS011;51514;52.206;5.114;2024-02-15T09:55:31;13.93;;;7.75;;
64885;SDS011;51514;52.206;5.114;2024-02-15T09:57:59;16.13;;;7.82;;
64885;SDS011;51514;52.206;5.114;2024-02-15T10:00:26;17.40;;;7.57;;
64885;SDS011;51514;52.206;5.114;2024-02-15T10:02:51;13.63;;;6.65;;
64885;SDS011;51514;52.206;5.114;2024-02-15T10:05:23;18.20;;;7.53;;
64885;SDS011;51514;52.206;5.114;2024-02-15T10:07:48;22.60;;;7.55;;
64885;SDS011;51514;52.206;5.114;2024-02-15T10:10:17;16.35;;;7.65;;
64885;SDS011;51514;52.206;5.114;2024-02-15T10:12:47;13.27;;;7.03;;
64885;SDS011;51514;52.206;5.114;2024-02-15T10:15:27;14.25;;;7.43;;
64885;SDS011;51514;52.206;5.114;2024-02-15T10:17:53;18.48;;;8.45;;
64885;SDS011;51514;52.206;5.114;2024-02-15T10:20:20;17.20;;;9.95;;
64885;SDS011;51514;52.206;5.114;2024-02-15T10:22:46;17.08;;;9.35;;
64885;SDS011;51514;52.206;5.114;2024-02-15T10:25:14;18.27;;;9.95;;
64885;SDS011;51514;52.206;5.114;2024-02-15T10:27:40;18.30;;;8.73;;
64885;SDS011;51514;52.206;5.114;2024-02-15T10:30:16;16.20;;;8.10;;
64885;SDS011;51514;52.206;5.114;2024-02-15T10:32:43;15.65;;;7.30;;
64885;SDS011;51514;52.206;5.114;2024-02-15T10:35:09;22.38;;;8.60;;
64885;SDS011;51514;52.206;5.114;2024-02-15T10:37:35;14.48;;;7.40;;
64885;SDS011;51514;52.206;5.114;2024-02-15T10:40:03;22.27;;;7.72;;
64885;SDS011;51514;52.206;5.114;2024-02-15T10:42:32;11.55;;;6.63;;
64885;SDS011;51514;52.206;5.114;2024-02-15T10:45:04;14.52;;;8.27;;
64885;SDS011;51514;52.206;5.114;2024-02-15T10:47:33;13.77;;;7.32;;
64885;SDS011;51514;52.206;5.114;2024-02-15T10:49:59;15.55;;;7.88;;
64885;SDS011;51514;52.206;5.114;2024-02-15T10:52:25;17.58;;;7.70;;
64885;SDS011;51514;52.206;5.114;2024-02-15T10:54:59;20.30;;;9.07;;
64885;SDS011;51514;52.206;5.114;2024-02-15T10:57:29;19.15;;;7.72;;
64885;SDS011;51514;52.206;5.114;2024-02-15T10:59:58;16.85;;;9.25;;
64885;SDS011;51514;52.206;5.114;2024-02-15T11:02:30;19.57;;;8.93;;
64885;SDS011;51514;52.206;5.114;2024-02-15T11:05:06;19.77;;;8.13;;
64885;SDS011;51514;52.206;5.114;2024-02-15T11:07:35;16.85;;;8.10;;
64885;SDS011;51514;52.206;5.114;2024-02-15T11:10:02;19.77;;;8.55;;
64885;SDS011;51514;52.206;5.114;2024-02-15T11:12:33;14.20;;;7.00;;
64885;SDS011;51514;52.206;5.114;2024-02-15T11:14:59;16.25;;;8.52;;
64885;SDS011;51514;52.206;5.114;2024-02-15T11:20:05;14.13;;;7.43;;
64885;SDS011;51514;52.206;5.114;2024-02-15T11:22:34;14.35;;;8.32;;
64885;SDS011;51514;52.206;5.114;2024-02-15T11:25:07;18.05;;;8.05;;
64885;SDS011;51514;52.206;5.114;2024-02-15T11:27:40;14.43;;;7.63;;
64885;SDS011;51514;52.206;5.114;2024-02-15T11:30:06;14.52;;;8.60;;
64885;SDS011;51514;52.206;5.114;2024-02-15T11:32:44;11.77;;;7.97;;
64885;SDS011;51514;52.206;5.114;2024-02-15T11:40:16;15.48;;;9.38;;
64885;SDS011;51514;52.206;5.114;2024-02-15T11:42:43;14.15;;;8.77;;
64885;SDS011;51514;52.206;5.114;2024-02-15T11:45:09;17.88;;;8.68;;
64885;SDS011;51514;52.206;5.114;2024-02-15T11:47:38;19.58;;;9.27;;
64885;SDS011;51514;52.206;5.114;2024-02-15T11:50:10;17.08;;;9.75;;
64885;SDS011;51514;52.206;5.114;2024-02-15T11:52:40;16.70;;;9.40;;
64885;SDS011;51514;52.206;5.114;2024-02-15T11:55:14;17.65;;;8.90;;
64885;SDS011;51514;52.206;5.114;2024-02-15T11:57:53;20.65;;;10.27;;
64885;SDS011;51514;52.206;5.114;2024-02-15T12:00:29;13.07;;;8.63;;
64885;SDS011;51514;52.206;5.114;2024-02-15T12:03:14;17.83;;;8.25;;
64885;SDS011;51514;52.206;5.114;2024-02-15T12:05:58;16.38;;;8.32;;
64885;SDS011;51514;52.206;5.114;2024-02-15T12:08:43;14.07;;;8.23;;
64885;SDS011;51514;52.206;5.114;2024-02-15T12:11:28;17.17;;;8.48;;
64885;SDS011;51514;52.206;5.114;2024-02-15T12:14:14;13.05;;;9.38;;
64885;SDS011;51514;52.206;5.114;2024-02-15T12:17:06;13.85;;;9.18;;
64885;SDS011;51514;52.206;5.114;2024-02-15T12:19:50;12.75;;;8.93;;
64885;SDS011;51514;52.206;5.114;2024-02-15T12:24:53;14.95;;;9.63;;
64885;SDS011;51514;52.206;5.114;2024-02-15T12:27:26;10.80;;;8.57;;
64885;SDS011;51514;52.206;5.114;2024-02-15T12:29:58;15.88;;;9.95;;
64885;SDS011;51514;52.206;5.114;2024-02-15T12:32:27;14.07;;;9.25;;
64885;SDS011;51514;52.206;5.114;2024-02-15T12:34:53;13.93;;;10.05;;
64885;SDS011;51514;52.206;5.114;2024-02-15T12:37:34;15.55;;;9.35;;
64885;SDS011;51514;52.206;5.114;2024-02-15T12:40:09;13.20;;;8.07;;
64885;SDS011;51514;52.206;5.114;2024-02-15T12:42:44;14.20;;;8.80;;
64885;SDS011;51514;52.206;5.114;2024-02-15T12:45:18;15.07;;;8.10;;
64885;SDS011;51514;52.206;5.114;2024-02-15T12:47:46;13.43;;;7.95;;
64885;SDS011;51514;52.206;5.114;2024-02-15T12:50:15;13.95;;;9.07;;
64885;SDS011;51514;52.206;5.114;2024-02-15T12:52:42;13.93;;;9.20;;
64885;SDS011;51514;52.206;5.114;2024-02-15T12:55:16;11.40;;;7.47;;
64885;SDS011;51514;52.206;5.114;2024-02-15T12:57:44;13.88;;;8.20;;
64885;SDS011;51514;52.206;5.114;2024-02-15T13:00:14;10.73;;;6.72;;
64885;SDS011;51514;52.206;5.114;2024-02-15T13:02:46;9.82;;;7.05;;
64885;SDS011;51514;52.206;5.114;2024-02-15T13:07:43;9.50;;;6.22;;
64885;SDS011;51514;52.206;5.114;2024-02-15T13:10:11;8.93;;;5.88;;
64885;SDS011;51514;52.206;5.114;2024-02-15T13:12:39;11.45;;;6.03;;
64885;SDS011;51514;52.206;5.114;2024-02-15T13:15:10;13.13;;;7.53;;
64885;SDS011;51514;52.206;5.114;2024-02-15T13:20:05;9.70;;;5.70;;
64885;SDS011;51514;52.206;5.114;2024-02-15T13:22:35;10.27;;;5.78;;
64885;SDS011;51514;52.206;5.114;2024-02-15T13:25:03;8.07;;;4.93;;
64885;SDS011;51514;52.206;5.114;2024-02-15T13:27:29;12.90;;;6.15;;
64885;SDS011;51514;52.206;5.114;2024-02-15T13:29:54;7.13;;;4.88;;
64885;SDS011;51514;52.206;5.114;2024-02-15T13:32:20;8.65;;;4.65;;
64885;SDS011;51514;52.206;5.114;2024-02-15T13:34:46;7.68;;;4.20;;
64885;SDS011;51514;52.206;5.114;2024-02-15T13:37:21;8.88;;;4.30;;
64885;SDS011;51514;52.206;5.114;2024-02-15T13:39:48;9.95;;;4.72;;
64885;SDS011;51514;52.206;5.114;2024-02-15T13:42:14;10.95;;;3.70;;
64885;SDS011;51514;52.206;5.114;2024-02-15T13:44:42;9.95;;;4.25;;
64885;SDS011;51514;52.206;5.114;2024-02-15T13:47:07;11.07;;;4.35;;
64885;SDS011;51514;52.206;5.114;2024-02-15T13:49:33;7.28;;;4.00;;
64885;SDS011;51514;52.206;5.114;2024-02-15T13:51:59;8.57;;;3.83;;
64885;SDS011;51514;52.206;5.114;2024-02-15T13:54:28;9.20;;;3.97;;
64885;SDS011;51514;52.206;5.114;2024-02-15T13:56:55;10.88;;;4.63;;
64885;SDS011;51514;52.206;5.114;2024-02-15T13:59:21;7.78;;;4.03;;
64885;SDS011;51514;52.206;5.114;2024-02-15T14:01:47;11.52;;;3.88;;
64885;SDS011;51514;52.206;5.114;2024-02-15T14:04:12;8.88;;;3.83;;
64885;SDS011;51514;52.206;5.114;2024-02-15T14:06:38;7.70;;;3.70;;
64885;SDS011;51514;52.206;5.114;2024-02-15T14:09:05;7.10;;;3.35;;
64885;SDS011;51514;52.206;5.114;2024-02-15T14:11:31;8.00;;;3.58;;
64885;SDS011;51514;52.206;5.114;2024-02-15T14:13:56;7.07;;;4.03;;
64885;SDS011;51514;52.206;5.114;2024-02-15T14:16:23;7.15;;;3.22;;
64885;SDS011;51514;52.206;5.114;2024-02-15T14:18:49;7.57;;;3.15;;
64885;SDS011;51514;52.206;5.114;2024-02-15T14:21:16;7.10;;;3.60;;
64885;SDS011;51514;52.206;5.114;2024-02-15T14:23:43;8.18;;;3.70;;
64885;SDS011;51514;52.206;5.114;2024-02-15T14:26:09;8.48;;;4.15;;
64885;SDS011;51514;52.206;5.114;2024-02-15T14:28:35;7.63;;;3.38;;
64885;SDS011;51514;52.206;5.114;2024-02-15T14:31:01;6.88;;;3.22;;
64885;SDS011;51514;52.206;5.114;2024-02-15T14:33:45;6.43;;;3.20;;
64885;SDS011;51514;52.206;5.114;2024-02-15T14:36:11;6.88;;;4.07;;
64885;SDS011;51514;52.206;5.114;2024-02-15T14:38:39;7.35;;;3.25;;
64885;SDS011;51514;52.206;5.114;2024-02-15T14:41:04;8.77;;;3.33;;
64885;SDS011;51514;52.206;5.114;2024-02-15T14:43:31;8.00;;;3.42;;
64885;SDS011;51514;52.206;5.114;2024-02-15T14:45:56;9.18;;;3.25;;
64885;SDS011;51514;52.206;5.114;2024-02-15T14:48:22;7.35;;;3.63;;
64885;SDS011;51514;52.206;5.114;2024-02-15T14:50:49;10.15;;;3.40;;
64885;SDS011;51514;52.206;5.114;2024-02-15T14:53:15;9.38;;;3.28;;
64885;SDS011;51514;52.206;5.114;2024-02-15T14:55:43;7.35;;;3.40;;